Terminal Aerodrome Forecast
Issued by NWS Midland/Odessa, TX

Home | Current Version | Previous Version | Text Only | Print | Product List | Glossary On
Versions: 1 2 3 4 5 6 7 8 9 10 11 12 13 14 15 16 17 18 19 20
000
FTUS44 KMAF 271300 AAA
TAFMAF
TAF AMD
KMAF 271323Z 2713/2812 06012KT 3SM -FZDZSN BR OVC015
      TEMPO 2713/2717 1SM -FZDZSN BR OVC007
     FM271700 09012KT P6SM OVC015=

USA.gov is the U.S. government's official web portal to all federal, state and local government web resources and services.